W4HSV Weather Reports


Display with metric or nautical units.
time (UTC)temp
F
wind
direction
speed
MPH
gust
MPH
rain 1hr
in
rain 24hr
in
rain mn
in
humidity
%
barometer
mb
20191114182833 0 0.0 0.0 0.00 0.00 0.00 1024.8
20191114182338 0 0.0 0.0 0.00 0.00 0.00 1024.6
20191114181840 0 0.0 0.0 0.00 0.00 0.00 1024.8
20191114181341 0 0.0 0.0 0.00 0.02 0.00 1025.1
20191114180823 0 0.0 0.0 0.00 0.02 0.00 1025.3
20191114180325 0 0.0 0.0 0.00 0.02 0.00 1025.3
20191114175824 0 0.0 0.0 0.00 0.02 0.00 1025.5
20191114175325 0 0.0 0.0 0.00 0.02 0.00 1025.4
20191114174827 0 0.0 0.0 0.00 0.02 0.00 1025.5
20191114174326 0 0.0 0.0 0.00 0.02 0.00 1025.5
20191114173827 0 0.0 0.0 0.00 0.02 0.00 1025.5
20191114173328 0 0.0 0.0 0.00 0.02 0.00 1025.6
20191114172830 0 0.0 0.0 0.00 0.02 0.00 1025.7
20191114172336 0 0.0 0.0 0.00 0.02 0.00 1025.7
20191114171839 0 0.0 0.0 0.00 0.02 0.00 1025.8
20191114171339 0 0.0 0.0 0.00 0.03 0.00 1025.8
20191114170840 0 0.0 0.0 0.00 0.03 0.00 1026.0
20191114170340 0 0.0 0.0 0.00 0.03 0.00 1026.1
20191114165839 0 0.0 0.0 0.00 0.03 0.00 1026.1
20191114165340 0 0.0 0.0 0.00 0.03 0.00 1026.2
20191114164843 0 0.0 0.0 0.00 0.03 0.00 1026.2
20191114164343 0 0.0 0.0 0.00 0.03 0.00 1026.1
20191114163843 0 0.0 0.0 0.00 0.03 0.00 1026.0
20191114163324 0 0.0 0.0 0.00 0.03 0.00 1026.0
20191114162825 0 0.0 0.0 0.00 0.03 0.00 1026.1
20191114162330 0 0.0 0.0 0.00 0.03 0.00 1025.9
20191114161832 0 0.0 0.0 0.00 0.03 0.00 1026.0
20191114161332 0 0.0 0.0 0.00 0.03 0.00 1026.1
20191114160832 0 0.0 0.0 0.00 0.03 0.00 1026.2
20191114160335 0 0.0 0.0 0.00 0.03 0.00 1026.2
20191114155834 0 0.0 0.0 0.00 0.03 0.00 1026.3
20191114155335 0 0.0 0.0 0.00 0.03 0.00 1026.3
20191114154838 0 0.0 0.0 0.00 0.03 0.00 1026.2
20191114154337 0 0.0 0.0 0.00 0.03 0.00 1026.2
20191114153838 0 0.0 0.0 0.00 0.03 0.00 1026.2
20191114153339 0 0.0 0.0 0.00 0.03 0.00 1026.2
20191114152839 0 0.0 0.0 0.00 0.03 0.00 1026.3
20191114152323 43 192 3.0 7.0 0.00 0.03 0.00 60 1026.3
20191114151825 43 192 3.0 7.0 0.00 0.03 0.00 60 1026.3
20191114151325 43 192 3.0 7.0 0.00 0.03 0.00 60 1026.2
20191114150826 43 193 4.0 8.0 0.00 0.03 0.00 60 1026.2
20191114150327 43 183 4.0 8.0 0.00 0.03 0.00 59 1026.2
20191114145829 43 185 4.0 7.0 0.00 0.03 0.00 59 1026.2
20191114145330 43 174 1.0 6.0 0.00 0.03 0.00 59 1026.0
20191114144832 43 174 4.0 6.0 0.00 0.03 0.00 59 1026.0
20191114144331 43 175 1.0 4.0 0.00 0.03 0.00 59 1026.0
20191114143832 42 175 1.0 5.0 0.00 0.03 0.00 61 1026.1
20191114143333 42 175 1.0 5.0 0.00 0.03 0.00 60 1026.0
20191114142833 42 175 2.0 5.0 0.00 0.03 0.00 60 1026.1
20191114142334 42 175 1.0 7.0 0.00 0.03 0.00 59 1026.1
20191114141842 42 175 4.0 7.0 0.00 0.03 0.00 59 1026.0
20191114141342 41 179 1.0 5.0 0.00 0.03 0.00 62 1026.0
20191114140842 40 179 3.0 5.0 0.00 0.03 0.00 61 1026.0
20191114140323 40 179 3.0 5.0 0.00 0.03 0.00 61 1026.1
20191114135824 40 179 1.0 3.0 0.00 0.03 0.00 62 1026.1
20191114135326 40 179 0.0 3.0 0.00 0.03 0.00 62 1026.2
20191114134831 40 179 1.0 3.0 0.00 0.03 0.00 65 1026.4
20191114134330 39 179 0.0 4.0 0.00 0.03 0.00 65 1026.4
20191114133831 39 179 2.0 4.0 0.00 0.03 0.00 65 1026.1
20191114133332 39 179 0.0 0.0 0.00 0.03 0.00 65 1026.1
20191114132833 38 179 0.0 0.0 0.00 0.03 0.00 66 1026.0
20191114132334 38 179 0.0 4.0 0.00 0.03 0.00 66 1026.0
20191114131842 38 179 2.0 4.0 0.00 0.03 0.00 65 1026.0
20191114131343 38 179 0.0 4.0 0.00 0.03 0.00 66 1026.0
20191114130824 38 179 2.0 6.0 0.00 0.03 0.00 65 1026.0
20191114130323 38 179 3.0 5.0 0.00 0.03 0.00 65 1026.0
20191114125824 38 179 3.0 5.0 0.00 0.03 0.00 65 1025.9
20191114125324 38 179 3.0 5.0 0.00 0.03 0.00 64 1025.9
20191114124844 38 179 0.0 3.0 0.00 0.03 0.00 64 1025.9
20191114124343 38 179 2.0 5.0 0.00 0.03 0.00 65 1026.0
20191114123823 38 179 3.0 5.0 0.00 0.03 0.00 65 1025.9
20191114123323 38 179 3.0 7.0 0.00 0.03 0.00 64 1025.9
20191114122824 38 179 3.0 7.0 0.00 0.03 0.00 64 1025.8
20191114122325 38 172 3.0 6.0 0.00 0.03 0.00 64 1025.8
20191114121831 38 185 5.0 8.0 0.00 0.03 0.00 64 1025.6
20191114121332 38 179 5.0 8.0 0.00 0.03 0.00 64 1025.6
20191114120832 38 168 4.0 8.0 0.00 0.03 0.00 65 1025.6
20191114120333 38 168 6.0 9.0 0.00 0.03 0.00 64 1025.5
20191114115835 38 167 7.0 9.0 0.00 0.03 0.00 65 1025.3
20191114115335 38 168 6.0 8.0 0.00 0.03 0.00 64 1025.2
20191114114837 38 170 6.0 6.0 0.00 0.03 0.00 65 1025.4
20191114114336 38 171 6.0 6.0 0.00 0.03 0.00 65 1025.3
20191114113837 38 171 4.0 7.0 0.00 0.03 0.00 65 1025.5
20191114113338 38 172 5.0 7.0 0.00 0.03 0.00 66 1025.2
20191114112838 38 173 6.0 8.0 0.00 0.03 0.00 66 1025.2
20191114112339 38 180 3.0 7.0 0.00 0.03 0.00 65 1025.4
20191114111840 38 179 3.0 7.0 0.00 0.03 0.00 66 1025.4
20191114111324 37 176 4.0 7.0 0.00 0.03 0.00 66 1025.4
20191114110825 37 170 5.0 7.0 0.00 0.03 0.00 65 1025.2
20191114110325 37 162 3.0 7.0 0.00 0.03 0.00 67 1025.2
20191114105826 37 161 6.0 7.0 0.00 0.03 0.00 66 1024.9
20191114105326 37 161 4.0 6.0 0.00 0.03 0.00 67 1025.1
20191114104829 37 162 5.0 6.0 0.00 0.03 0.00 66 1025.2
20191114104328 37 162 3.0 7.0 0.00 0.03 0.00 66 1025.4
20191114103829 37 162 3.0 7.0 0.00 0.03 0.00 65 1025.4
20191114103329 37 161 2.0 8.0 0.00 0.03 0.00 66 1025.3
20191114102829 37 160 5.0 10.0 0.00 0.03 0.00 66 1025.1
20191114102330 37 162 7.0 11.0 0.00 0.03 0.00 67 1025.1
20191114101832 37 166 7.0 9.0 0.00 0.03 0.00 67 1025.0
20191114101337 37 171 5.0 7.0 0.00 0.03 0.03 67 1025.1
20191114100836 37 172 5.0 8.0 0.00 0.03 0.03 66 1025.3
20191114100327 37 173 2.0 7.0 0.00 0.03 0.03 65 1025.4
20191114095827 37 172 6.0 7.0 0.00 0.03 0.03 65 1025.4
20191114095328 37 176 4.0 5.0 0.00 0.03 0.03 65 1025.3
20191114094831 37 177 3.0 7.0 0.00 0.03 0.03 65 1025.1
20191114094330 37 177 4.0 7.0 0.00 0.03 0.03 65 1024.9
20191114093831 37 159 5.0 7.0 0.00 0.03 0.03 65 1025.0
20191114093331 37 168 5.0 8.0 0.00 0.03 0.03 65 1024.9
20191114092832 37 154 4.0 12.0 0.00 0.03 0.03 65 1025.0
20191114092333 37 166 6.0 8.0 0.00 0.03 0.03 65 1024.7
20191114091834 37 159 6.0 8.0 0.00 0.03 0.03 66 1024.9
20191114091334 37 171 5.0 7.0 0.00 0.03 0.03 67 1025.0
20191114090838 36 164 2.0 7.0 0.00 0.03 0.03 70 1024.9
20191114090340 36 163 6.0 7.0 0.00 0.03 0.03 70 1024.7
20191114085840 36 162 5.0 7.0 0.00 0.03 0.03 71 1024.7
20191114085339 36 160 4.0 7.0 0.00 0.03 0.03 72 1024.7
20191114084841 35 160 4.0 6.0 0.00 0.03 0.03 72 1024.6
20191114084340 36 160 4.0 5.0 0.00 0.03 0.03 72 1024.6
20191114083841 35 160 3.0 5.0 0.00 0.03 0.03 72 1024.7
20191114083341 35 160 2.0 10.0 0.00 0.03 0.03 72 1024.8
20191114082841 35 160 3.0 10.0 0.00 0.03 0.03 72 1024.6
20191114082342 35 173 8.0 9.0 0.00 0.03 0.03 73 1024.5
20191114081824 35 182 6.0 7.0 0.00 0.03 0.03 73 1024.7
20191114081325 35 184 3.0 4.0 0.00 0.03 0.03 73 1024.8
20191114080831 35 185 0.0 0.0 0.00 0.03 0.03 73 1025.0
20191114080331 35 185 0.0 1.0 0.00 0.03 0.03 74 1025.0
20191114075831 35 185 0.0 1.0 0.00 0.03 0.03 72 1024.8
20191114075331 35 185 0.0 2.0 0.00 0.03 0.03 72 1024.8
20191114074834 35 185 0.0 3.0 0.00 0.03 0.03 71 1024.9
20191114074335 35 185 2.0 4.0 0.00 0.03 0.03 70 1025.0
20191114073837 35 185 3.0 4.0 0.00 0.03 0.03 70 1025.3
20191114073338 35 185 2.0 3.0 0.00 0.03 0.03 70 1025.2
20191114072840 36 185 0.0 0.0 0.00 0.03 0.03 69 1025.4
20191114072340 36 184 0.0 0.0 0.00 0.03 0.03 69 1025.2
20191114071843 36 185 0.0 0.0 0.00 0.03 0.03 67 1025.2
20191114071343 36 184 0.0 1.0 0.00 0.03 0.03 67 1025.1
20191114070827 36 185 0.0 3.0 0.00 0.03 0.03 66 1025.0
20191114070327 36 185 2.0 4.0 0.00 0.03 0.03 67 1024.9
20191114065827 36 185 2.0 4.0 0.00 0.03 0.03 67 1024.7
20191114065328 36 184 2.0 5.0 0.00 0.03 0.03 67 1024.5
20191114064830 37 184 3.0 7.0 0.00 0.03 0.03 68 1024.2
20191114064329 37 185 5.0 7.0 0.00 0.03 0.03 67 1024.1
20191114063829 37 187 5.0 7.0 0.00 0.03 0.03 68 1024.0
20191114063329 37 182 3.0 9.0 0.00 0.03 0.03 68 1024.0
20191114062830 36 172 6.0 9.0 0.00 0.03 0.03 69 1023.9
20191114062331 36 196 4.0 9.0 0.00 0.03 0.03 70 1023.7
20191114061834 36 188 6.0 9.0 0.00 0.03 0.03 71 1023.7
20191114061334 36 198 4.0 10.0 0.00 0.03 0.03 72 1023.8
20191114060836 36 192 5.0 10.0 0.00 0.03 0.03 72 1023.7
20191114060341 36 181 3.0 8.0 0.00 0.03 0.03 73 1023.5
20191114055841 36 197 5.0 10.0 0.00 0.03 0.03 74 1023.6
20191114055341 36 190 6.0 10.0 0.00 0.03 0.03 74 1023.7
20191114054843 36 187 5.0 8.0 0.00 0.03 0.03 75 1023.8
20191114054342 35 181 3.0 8.0 0.00 0.03 0.03 76 1023.7
20191114053843 35 176 7.0 8.0 0.00 0.03 0.03 77 1023.7
20191114053323 35 152 9.0 9.0 0.00 0.03 0.03 76 1023.8
20191114052825 35 143 5.0 7.0 0.00 0.03 0.03 76 1024.0
20191114052326 35 143 3.0 4.0 0.00 0.03 0.03 77 1024.3
20191114051828 35 143 0.0 4.0 0.00 0.03 0.03 77 1024.4
20191114051329 35 143 1.0 8.0 0.00 0.03 0.03 78 1024.4
20191114050829 34 143 3.0 8.0 0.00 0.03 0.03 79 1024.4
20191114050334 34 137 3.0 6.0 0.00 0.03 0.03 79 1024.4
20191114045834 34 179 3.0 5.0 0.00 0.03 0.03 80 1024.6
20191114045334 34 179 0.0 2.0 0.00 0.03 0.03 80 1024.8
20191114044836 34 179 0.0 0.0 0.00 0.03 0.03 79 1024.9
20191114044335 34 179 0.0 0.0 0.00 0.03 0.03 79 1024.8
20191114043835 34 179 0.0 0.0 0.00 0.03 0.03 79 1025.0
20191114043336 34 178 0.0 0.0 0.00 0.03 0.03 79 1025.0
20191114042838 34 179 0.0 0.0 0.00 0.03 0.03 79 1025.0
20191114042337 34 179 0.0 0.0 0.00 0.03 0.03 78 1025.2
20191114041840 34 178 0.0 0.0 0.00 0.03 0.03 78 1025.0
20191114041339 34 178 0.0 0.0 0.00 0.03 0.03 78 1025.2
20191114040841 34 178 0.0 0.0 0.00 0.03 0.03 78 1025.1
20191114040325 34 178 0.0 0.0 0.00 0.03 0.03 78 1025.1
20191114035825 34 178 0.0 0.0 0.00 0.03 0.03 79 1025.1
20191114035326 34 178 0.0 0.0 0.00 0.03 0.03 79 1025.0
20191114034829 34 178 0.0 0.0 0.00 0.03 0.03 80 1025.1
20191114034330 34 179 0.0 0.0 0.00 0.03 0.03 79 1025.0
20191114033830 34 179 0.0 0.0 0.00 0.03 0.03 79 1025.0
20191114033330 34 179 0.0 0.0 0.00 0.03 0.03 79 1025.1
20191114032829 34 179 0.0 0.0 0.00 0.03 0.03 78 1025.0
20191114032329 34 179 0.0 0.0 0.00 0.03 0.03 76 1024.9
20191114031832 35 179 0.0 0.0 0.00 0.03 0.03 74 1024.8
20191114031332 35 179 0.0 0.0 0.00 0.03 0.03 73 1024.9
20191114030834 36 179 0.0 0.0 0.00 0.03 0.03 72 1024.9
20191114030334 36 179 0.0 0.0 0.00 0.03 0.03 72 1024.8
20191114025838 36 179 0.0 0.0 0.00 0.03 0.03 71 1024.9
20191114025339 35 179 0.0 0.0 0.00 0.03 0.03 72 1024.9
20191114024841 34 179 0.0 0.0 0.00 0.03 0.03 74 1024.7
20191114024340 34 179 0.0 0.0 0.00 0.03 0.03 75 1024.8
20191114023841 34 179 0.0 0.0 0.00 0.03 0.03 75 1024.6
20191114023341 34 179 0.0 3.0 0.00 0.03 0.03 75 1024.7
20191114022841 34 179 2.0 3.0 0.00 0.03 0.03 74 1024.8
20191114022342 35 179 2.0 4.0 0.00 0.03 0.03 72 1024.7
20191114021824 36 179 2.0 4.0 0.00 0.03 0.03 70 1024.8
20191114021323 37 179 0.0 2.0 0.00 0.03 0.03 66 1024.6
20191114020844 37 179 0.0 3.0 0.00 0.03 0.03 66 1024.5
20191114020344 37 179 1.0 6.0 0.00 0.03 0.03 65 1024.5
20191114015828 37 179 1.0 6.0 0.00 0.03 0.03 66 1024.4
20191114015328 36 177 3.0 6.0 0.00 0.03 0.03 67 1024.3
20191114014831 36 175 1.0 3.0 0.00 0.03 0.03 68 1024.0
20191114014330 36 175 1.0 3.0 0.00 0.03 0.03 70 1023.9
20191114013831 36 175 2.0 4.0 0.00 0.03 0.03 70 1024.0
20191114013332 36 175 3.0 5.0 0.00 0.03 0.03 70 1024.0
20191114012832 36 174 5.0 6.0 0.00 0.03 0.03 68 1024.0
20191114012333 37 166 4.0 5.0 0.00 0.03 0.03 65 1023.7
20191114011835 38 161 3.0 5.0 0.00 0.03 0.03 64 1023.5
20191114011336 38 160 2.0 5.0 0.00 0.03 0.03 64 1023.4
20191114010836 38 160 0.0 5.0 0.00 0.03 0.03 64 1023.0
20191114005831 38 160 1.0 3.0 0.00 0.03 0.03 63 1022.9
20191114004341 38 156 2.0 5.0 0.00 0.03 0.03 63 1022.5
20191114003825 38 147 1.0 3.0 0.00 0.03 0.03 63 1022.4
20191114003324 38 147 0.0 3.0 0.00 0.03 0.03 62 1022.4
20191114002826 39 147 0.0 3.0 0.00 0.03 0.03 62 1022.3
20191114002327 39 147 1.0 3.0 0.00 0.03 0.03 62 1022.2
20191114001849 39 147 2.0 3.0 0.00 0.03 0.03 61 1022.3
20191114001342 39 147 2.0 3.0 0.00 0.03 0.03 61 1022.4
20191114000843 39 147 1.0 3.0 0.00 0.03 0.03 62 1022.5